createdAt,value
2023-04-15T00:00:57.945Z,79.44
2023-04-15T00:01:58.074Z,78.81
2023-04-15T00:02:58.162Z,78.42
2023-04-15T00:03:58.019Z,79.73
2023-04-15T00:04:57.959Z,79.91
2023-04-15T00:05:57.944Z,77.87
2023-04-15T00:06:57.900Z,78.95
2023-04-15T00:07:57.948Z,78.58
2023-04-15T00:08:58.073Z,78.57
2023-04-15T00:09:57.919Z,74.42
2023-04-15T00:10:57.910Z,78.02
2023-04-15T00:11:57.886Z,78.37
2023-04-15T00:12:57.908Z,76.89
2023-04-15T00:13:57.870Z,76.48
2023-04-15T00:14:57.902Z,77.21
2023-04-15T00:15:57.857Z,74.83
2023-04-15T00:16:58.082Z,77.26
2023-04-15T00:17:57.880Z,75.79
2023-04-15T00:18:58.092Z,75.29
2023-04-15T00:19:57.846Z,74.68
2023-04-15T00:20:57.821Z,73.80
2023-04-15T00:21:57.839Z,72.83
2023-04-15T00:22:57.815Z,75.12
2023-04-15T00:23:57.808Z,75.96
2023-04-15T00:24:57.807Z,76.35
2023-04-15T00:25:57.831Z,71.55
2023-04-15T00:26:57.804Z,73.15
2023-04-15T00:27:57.801Z,75.54
2023-04-15T00:28:58.569Z,73.24
2023-04-15T00:29:57.788Z,72.74
2023-04-15T00:30:57.829Z,74.56
2023-04-15T00:31:57.744Z,75.24
2023-04-15T00:32:57.777Z,74.90
2023-04-15T00:33:57.731Z,74.25
2023-04-15T00:34:57.738Z,74.73
2023-04-15T00:35:57.746Z,74.74
2023-04-15T00:36:57.711Z,72.64
2023-04-15T00:37:57.710Z,73.63
2023-04-15T00:38:57.908Z,74.27
2023-04-15T00:39:57.699Z,74.52
2023-04-15T00:40:57.707Z,75.16
2023-04-15T00:41:57.696Z,73.19
2023-04-15T00:42:57.658Z,74.17
2023-04-15T00:43:57.705Z,74.99
2023-04-15T00:44:57.713Z,72.95
2023-04-15T00:45:57.694Z,72.32
2023-04-15T00:46:57.666Z,72.44
2023-04-15T00:47:57.720Z,73.53
2023-04-15T00:48:57.783Z,72.88
2023-04-15T00:49:57.611Z,72.71
2023-04-15T00:50:57.619Z,70.97
2023-04-15T00:51:57.633Z,72.72
2023-04-15T00:52:57.611Z,73.36
2023-04-15T00:53:57.616Z,69.85
2023-04-15T00:54:57.622Z,72.21
2023-04-15T00:55:57.585Z,70.60
2023-04-15T00:56:57.592Z,70.61
2023-04-15T00:57:57.584Z,67.75
2023-04-15T00:58:57.698Z,70.13
2023-04-15T00:59:57.561Z,71.99
2023-04-15T01:00:57.588Z,71.99
2023-04-15T01:01:57.750Z,71.89
2023-04-15T01:02:57.805Z,69.62
2023-04-15T01:03:57.783Z,72.05
2023-04-15T01:04:57.721Z,71.35
2023-04-15T01:05:57.742Z,71.48
2023-04-15T01:06:57.803Z,67.82
2023-04-15T01:07:57.820Z,68.88
2023-04-15T01:08:57.952Z,67.69
2023-04-15T01:09:57.901Z,69.74
2023-04-15T01:10:57.908Z,69.12
2023-04-15T01:11:57.934Z,71.67
2023-04-15T01:12:57.965Z,70.32
2023-04-15T01:13:57.968Z,71.11
2023-04-15T01:14:58.049Z,70.28
2023-04-15T01:15:58.110Z,71.00
2023-04-15T01:16:58.101Z,71.73
2023-04-15T01:17:58.147Z,69.74
2023-04-15T01:18:58.238Z,68.75
2023-04-15T01:19:58.223Z,70.05
2023-04-15T01:20:58.198Z,69.29
2023-04-15T01:21:58.262Z,69.52
2023-04-15T01:22:58.263Z,68.08
2023-04-15T01:23:58.311Z,69.12
2023-04-15T01:24:58.337Z,68.29
2023-04-15T01:25:58.362Z,71.17
2023-04-15T01:26:58.413Z,71.19
2023-04-15T01:27:58.417Z,66.96
2023-04-15T01:28:58.558Z,67.34
2023-04-15T01:29:58.518Z,66.56
2023-04-15T01:30:58.511Z,68.79
2023-04-15T01:31:58.584Z,67.19
2023-04-15T01:32:58.612Z,65.74
2023-04-15T01:33:58.622Z,66.22
2023-04-15T01:34:58.644Z,66.64
2023-04-15T01:35:58.653Z,69.15
2023-04-15T01:36:58.697Z,63.97
2023-04-15T01:37:58.702Z,67.53
2023-04-15T01:38:58.920Z,66.34
2023-04-15T01:39:58.802Z,68.70
2023-04-15T01:40:58.830Z,69.33
2023-04-15T01:41:58.848Z,69.19
2023-04-15T01:42:58.844Z,68.30
2023-04-15T01:43:58.918Z,64.75
2023-04-15T01:44:58.942Z,64.81
2023-04-15T01:45:58.983Z,66.33
2023-04-15T01:46:59.116Z,67.07
2023-04-15T01:47:59.090Z,66.70
2023-04-15T01:48:59.286Z,66.71
2023-04-15T01:49:59.098Z,67.74
2023-04-15T01:50:59.147Z,65.55
2023-04-15T01:51:59.162Z,68.62
2023-04-15T01:52:59.181Z,67.40
2023-04-15T01:53:59.206Z,65.61
2023-04-15T01:54:59.231Z,66.73
2023-04-15T01:55:59.289Z,66.13
2023-04-15T01:56:59.312Z,64.53
2023-04-15T01:57:59.368Z,66.98
2023-04-15T01:58:59.582Z,64.73
2023-04-15T01:59:59.430Z,64.50
2023-04-15T02:00:59.452Z,67.05
2023-04-15T02:01:59.465Z,64.96
2023-04-15T02:02:59.549Z,65.19
2023-04-15T02:03:59.539Z,63.41
2023-04-15T02:04:59.570Z,64.75
2023-04-15T02:05:59.593Z,63.78
2023-04-15T02:06:59.616Z,63.24
2023-04-15T02:07:59.654Z,64.08
2023-04-15T02:09:00.051Z,65.46
2023-04-15T02:09:59.678Z,66.14
2023-04-15T02:10:59.730Z,66.54
2023-04-15T02:11:59.779Z,63.54
2023-04-15T02:12:59.777Z,65.20
2023-04-15T02:13:59.819Z,63.05
2023-04-15T02:14:59.874Z,64.72
2023-04-15T02:15:59.935Z,64.64
2023-04-15T02:16:59.912Z,63.93
2023-04-15T02:17:59.950Z,63.39
2023-04-15T02:19:00.146Z,64.18
2023-04-15T02:20:00.020Z,63.36
2023-04-15T02:21:00.037Z,63.14
2023-04-15T02:22:00.050Z,63.31
2023-04-15T02:23:00.150Z,63.90
2023-04-15T02:24:00.120Z,64.51
2023-04-15T02:25:00.158Z,61.37
2023-04-15T02:26:00.153Z,64.43
2023-04-15T02:27:00.204Z,64.47
2023-04-15T02:28:00.209Z,62.58
2023-04-15T02:29:00.636Z,63.78
2023-04-15T02:30:00.337Z,65.07
2023-04-15T02:31:00.307Z,64.03
2023-04-15T02:32:00.372Z,63.86
2023-04-15T02:33:00.396Z,61.00
2023-04-15T02:34:00.396Z,63.01
2023-04-15T02:35:00.430Z,60.20
2023-04-15T02:36:00.476Z,63.74
2023-04-15T02:37:00.509Z,64.23
2023-04-15T02:38:00.523Z,63.13
2023-04-15T02:39:00.908Z,60.71
2023-04-15T02:40:00.618Z,62.19
2023-04-15T02:41:00.612Z,63.09
2023-04-15T02:42:00.662Z,61.84
2023-04-15T02:43:00.664Z,59.57
2023-04-15T02:44:00.702Z,59.19
2023-04-15T02:45:00.788Z,60.59
2023-04-15T02:46:00.813Z,62.56
2023-04-15T02:47:00.828Z,57.96
2023-04-15T02:48:00.864Z,60.52
2023-04-15T02:49:01.163Z,63.74
2023-04-15T02:50:00.900Z,58.56
2023-04-15T02:51:00.951Z,59.86
2023-04-15T02:52:00.960Z,58.65
2023-04-15T02:53:01.003Z,61.30
2023-04-15T02:54:01.019Z,61.51
2023-04-15T02:55:01.073Z,60.18
2023-04-15T02:56:01.073Z,59.97
2023-04-15T02:57:01.129Z,61.29
2023-04-15T02:58:01.135Z,60.10
2023-04-15T02:59:01.510Z,61.02
2023-04-15T03:00:01.223Z,60.91
2023-04-15T03:01:01.296Z,58.98
2023-04-15T03:02:01.344Z,59.92
2023-04-15T03:03:01.352Z,60.42
2023-04-15T03:04:01.384Z,59.79
2023-04-15T03:05:01.363Z,58.96
2023-04-15T03:06:01.369Z,58.71
2023-04-15T03:07:01.387Z,61.06
2023-04-15T03:08:01.529Z,59.03
2023-04-15T03:09:01.823Z,59.12
2023-04-15T03:10:01.490Z,58.74
2023-04-15T03:11:01.484Z,59.15
2023-04-15T03:12:01.549Z,56.75
2023-04-15T03:13:01.562Z,57.77
2023-04-15T03:14:01.586Z,58.78
2023-04-15T03:15:01.643Z,58.45
2023-04-15T03:16:01.668Z,56.34
2023-04-15T03:17:01.660Z,56.13
2023-04-15T03:18:01.793Z,56.23
2023-04-15T03:19:01.875Z,58.51
2023-04-15T03:20:01.773Z,60.37
2023-04-15T03:21:01.742Z,54.98
2023-04-15T03:22:01.812Z,58.54
2023-04-15T03:23:01.927Z,57.46
2023-04-15T03:24:01.853Z,59.12
2023-04-15T03:25:01.842Z,58.55
2023-04-15T03:26:01.887Z,57.73
2023-04-15T03:27:01.941Z,56.83
2023-04-15T03:28:01.912Z,56.25
2023-04-15T03:29:02.116Z,57.83
2023-04-15T03:30:02.064Z,56.78
2023-04-15T03:31:02.041Z,56.82
2023-04-15T03:32:02.041Z,56.06
2023-04-15T03:33:02.138Z,59.71
2023-04-15T03:34:02.120Z,58.21
2023-04-15T03:35:02.240Z,56.93
2023-04-15T03:36:02.226Z,57.25
2023-04-15T03:37:02.204Z,56.38
2023-04-15T03:38:02.296Z,55.33
2023-04-15T03:39:02.507Z,55.60
2023-04-15T03:40:02.307Z,56.69
2023-04-15T03:41:02.316Z,56.28
2023-04-15T03:42:02.370Z,56.49
2023-04-15T03:43:02.368Z,54.27
2023-04-15T03:44:02.412Z,55.66
2023-04-15T03:45:02.435Z,56.36
2023-04-15T03:46:02.524Z,57.09
2023-04-15T03:47:02.480Z,56.69
2023-04-15T03:49:02.706Z,54.69
2023-04-15T03:50:02.529Z,57.78
2023-04-15T03:51:02.479Z,54.53
2023-04-15T03:52:02.489Z,52.92
2023-04-15T03:53:02.469Z,54.50
2023-04-15T03:54:02.494Z,57.03
2023-04-15T03:55:02.458Z,51.82
2023-04-15T03:56:02.448Z,55.83
2023-04-15T03:57:02.460Z,55.02
2023-04-15T03:58:02.452Z,55.96
2023-04-15T03:59:02.761Z,54.25
2023-04-15T04:00:02.460Z,56.27
2023-04-15T04:01:02.390Z,53.93
2023-04-15T04:02:02.567Z,55.47
2023-04-15T04:03:02.503Z,55.69
2023-04-15T04:04:02.462Z,53.06
2023-04-15T04:05:02.420Z,54.11
2023-04-15T04:06:02.396Z,51.07
2023-04-15T04:07:02.373Z,54.61
2023-04-15T04:08:02.386Z,52.38
2023-04-15T04:09:02.707Z,54.67
2023-04-15T04:10:02.355Z,52.05
2023-04-15T04:11:02.357Z,51.16
2023-04-15T04:12:02.363Z,49.90
2023-04-15T04:13:02.340Z,54.36
2023-04-15T04:14:02.329Z,51.24
2023-04-15T04:15:02.446Z,53.12
2023-04-15T04:16:02.402Z,51.62
2023-04-15T04:17:02.333Z,52.47
2023-04-15T04:18:02.377Z,53.48
2023-04-15T04:19:02.752Z,51.25
2023-04-15T04:20:02.319Z,51.61
2023-04-15T04:21:02.287Z,54.71
2023-04-15T04:22:02.292Z,53.58
2023-04-15T04:23:02.275Z,52.53
2023-04-15T04:24:02.265Z,51.70
2023-04-15T04:25:02.247Z,52.73
2023-04-15T04:26:02.291Z,51.18
2023-04-15T04:27:02.277Z,51.63
2023-04-15T04:28:02.251Z,52.64
2023-04-15T04:29:02.328Z,50.44
2023-04-15T04:30:02.227Z,49.45
2023-04-15T04:31:02.334Z,50.39
2023-04-15T04:32:02.258Z,50.10
2023-04-15T04:33:02.260Z,49.90
2023-04-15T04:34:02.205Z,50.98
2023-04-15T04:35:02.193Z,53.82
2023-04-15T04:36:02.181Z,50.89
2023-04-15T04:37:02.216Z,50.31
2023-04-15T04:38:02.165Z,50.61
2023-04-15T04:39:02.385Z,49.30
2023-04-15T04:40:02.234Z,47.35
2023-04-15T04:41:02.153Z,46.77
2023-04-15T04:42:02.137Z,50.31
2023-04-15T04:43:02.168Z,50.10
2023-04-15T04:44:02.139Z,50.61
2023-04-15T04:45:02.205Z,49.17
2023-04-15T04:46:02.158Z,50.62
2023-04-15T04:47:02.178Z,48.94
2023-04-15T04:48:02.160Z,47.74
2023-04-15T04:49:02.522Z,48.70
2023-04-15T04:50:02.195Z,47.46
2023-04-15T04:51:02.206Z,48.37
2023-04-15T04:52:02.226Z,48.71
2023-04-15T04:53:02.299Z,48.89
2023-04-15T04:54:03.653Z,47.63
2023-04-15T04:55:02.355Z,48.36
2023-04-15T04:56:02.383Z,48.09
2023-04-15T04:57:02.424Z,46.97
2023-04-15T04:58:02.430Z,50.18
2023-04-15T04:59:02.655Z,48.01
2023-04-15T05:00:02.477Z,47.99
2023-04-15T05:01:02.520Z,45.22
2023-04-15T05:02:02.614Z,47.33
2023-04-15T05:03:02.682Z,49.21
2023-04-15T05:04:02.811Z,46.84
2023-04-15T05:05:02.651Z,47.29
2023-04-15T05:06:02.651Z,46.41
2023-04-15T05:07:02.670Z,44.58
2023-04-15T05:08:02.698Z,45.54
2023-04-15T05:09:03.080Z,41.74
2023-04-15T05:10:02.751Z,46.27
2023-04-15T05:11:02.807Z,47.38
2023-04-15T05:12:02.825Z,43.20
2023-04-15T05:13:02.867Z,44.74
2023-04-15T05:14:02.908Z,44.41
2023-04-15T05:15:02.922Z,43.34
2023-04-15T05:16:02.998Z,46.27
2023-04-15T05:17:02.983Z,44.29
2023-04-15T05:18:03.040Z,44.73
2023-04-15T05:19:03.288Z,44.08
2023-04-15T05:20:03.170Z,42.00
2023-04-15T05:21:03.098Z,43.90
2023-04-15T05:22:03.150Z,43.88
2023-04-15T05:23:03.183Z,43.01
2023-04-15T05:24:03.198Z,42.87
2023-04-15T05:25:03.312Z,43.05
2023-04-15T05:26:03.245Z,43.25
2023-04-15T05:27:03.277Z,43.18
2023-04-15T05:28:03.294Z,42.38
2023-04-15T05:29:03.461Z,45.25
2023-04-15T05:30:03.363Z,42.46
2023-04-15T05:31:03.422Z,42.69
2023-04-15T05:32:03.449Z,41.36
2023-04-15T05:33:03.467Z,42.08
2023-04-15T05:34:03.490Z,42.78
2023-04-15T05:35:03.499Z,43.80
2023-04-15T05:36:03.531Z,40.85
2023-04-15T05:37:03.574Z,40.63
2023-04-15T05:38:03.613Z,40.70
2023-04-15T05:39:03.797Z,42.61
2023-04-15T05:40:03.685Z,40.88
2023-04-15T05:41:03.684Z,41.96
2023-04-15T05:42:03.722Z,39.95
2023-04-15T05:43:03.772Z,41.17
2023-04-15T05:44:03.788Z,42.40
2023-04-15T05:45:03.813Z,42.10
2023-04-15T05:46:03.917Z,41.46
2023-04-15T05:47:03.861Z,38.85
2023-04-15T05:48:03.913Z,41.35
2023-04-15T05:49:04.098Z,38.14
2023-04-15T05:50:03.950Z,39.62
2023-04-15T05:51:04.037Z,41.87
2023-04-15T05:52:04.024Z,39.17
2023-04-15T05:53:04.058Z,38.42
2023-04-15T05:54:04.074Z,41.41
2023-04-15T05:55:04.083Z,39.62
2023-04-15T05:56:04.130Z,37.89
2023-04-15T05:57:04.159Z,39.93
2023-04-15T05:58:04.143Z,39.54
2023-04-15T05:59:04.195Z,39.68
2023-04-15T06:00:04.223Z,37.34
2023-04-15T06:01:04.291Z,39.54
2023-04-15T06:02:04.332Z,37.52
2023-04-15T06:03:04.408Z,39.00
2023-04-15T06:04:04.449Z,38.74
2023-04-15T06:05:04.421Z,37.82
2023-04-15T06:06:04.404Z,36.97
2023-04-15T06:07:04.463Z,36.81
2023-04-15T06:08:04.475Z,37.99
2023-04-15T06:09:04.582Z,38.18
2023-04-15T06:10:04.535Z,34.97
2023-04-15T06:11:04.560Z,39.51
2023-04-15T06:12:04.559Z,38.81
2023-04-15T06:13:04.589Z,38.74
2023-04-15T06:14:04.653Z,38.88
2023-04-15T06:15:04.668Z,36.82
2023-04-15T06:16:04.752Z,37.61
2023-04-15T06:17:04.729Z,36.05
2023-04-15T06:18:04.739Z,36.55
2023-04-15T06:19:04.794Z,37.42
2023-04-15T06:20:04.802Z,38.21
2023-04-15T06:21:04.850Z,33.62
2023-04-15T06:22:04.843Z,36.46
2023-04-15T06:23:04.891Z,36.24
2023-04-15T06:24:04.906Z,36.66
2023-04-15T06:25:04.928Z,35.77
2023-04-15T06:26:04.934Z,35.33
2023-04-15T06:27:04.994Z,36.08
2023-04-15T06:28:05.006Z,40.07
2023-04-15T06:29:05.053Z,36.30
2023-04-15T06:30:05.130Z,36.92
2023-04-15T06:31:05.093Z,33.65
2023-04-15T06:32:05.125Z,36.99
2023-04-15T06:33:05.194Z,34.44
2023-04-15T06:34:05.194Z,36.98
2023-04-15T06:35:05.245Z,36.36
2023-04-15T06:36:05.261Z,29.30
2023-04-15T06:37:06.406Z,31.71
2023-04-15T06:38:05.303Z,37.23
2023-04-15T06:39:05.339Z,36.22
2023-04-15T06:40:05.394Z,35.29
2023-04-15T06:41:05.398Z,33.78
2023-04-15T06:42:05.435Z,33.35
2023-04-15T06:43:05.424Z,33.96
2023-04-15T06:44:05.470Z,34.10
2023-04-15T06:45:05.529Z,33.74
2023-04-15T06:46:05.546Z,30.71
2023-04-15T06:47:05.542Z,37.93
2023-04-15T06:48:05.610Z,33.85
2023-04-15T06:49:05.628Z,34.97
2023-04-15T06:50:05.661Z,31.17
2023-04-15T06:51:05.684Z,34.59
2023-04-15T06:52:05.673Z,33.68
2023-04-15T06:53:05.724Z,34.03
2023-04-15T06:54:05.744Z,31.26
2023-04-15T06:55:05.799Z,33.03
2023-04-15T06:56:05.793Z,31.98
2023-04-15T06:57:05.812Z,31.96
2023-04-15T06:58:05.848Z,32.38
2023-04-15T06:59:05.861Z,35.26
2023-04-15T07:00:05.937Z,32.88
2023-04-15T07:01:05.980Z,32.93
2023-04-15T07:02:06.016Z,32.79
2023-04-15T07:03:06.012Z,33.43
2023-04-15T07:04:06.037Z,31.59
2023-04-15T07:05:06.030Z,30.05
2023-04-15T07:06:06.085Z,33.16
2023-04-15T07:07:06.085Z,32.05
2023-04-15T07:08:06.148Z,32.19
2023-04-15T07:09:06.186Z,30.40
2023-04-15T07:10:06.188Z,30.13
2023-04-15T07:11:06.202Z,32.51
2023-04-15T07:12:06.213Z,28.17
2023-04-15T07:13:06.252Z,29.93
2023-04-15T07:14:06.266Z,30.42
2023-04-15T07:15:06.305Z,30.90
2023-04-15T07:16:06.312Z,36.53
2023-04-15T07:17:06.495Z,32.94
2023-04-15T07:18:06.383Z,28.98
2023-04-15T07:19:06.440Z,33.91
2023-04-15T07:20:06.439Z,32.03
2023-04-15T07:21:06.558Z,32.61
2023-04-15T07:22:06.506Z,33.00
2023-04-15T07:23:06.529Z,33.68
2023-04-15T07:24:06.583Z,31.26
2023-04-15T07:25:06.603Z,30.83
2023-04-15T07:26:06.624Z,31.20
2023-04-15T07:27:06.645Z,31.37
2023-04-15T07:28:06.687Z,30.82
2023-04-15T07:29:06.711Z,30.40
2023-04-15T07:30:06.731Z,29.69
2023-04-15T07:31:06.771Z,29.44
2023-04-15T07:32:06.806Z,28.16
2023-04-15T07:33:06.797Z,32.56
2023-04-15T07:34:06.841Z,28.05
2023-04-15T07:35:06.854Z,28.94
2023-04-15T07:36:06.891Z,30.31
2023-04-15T07:37:06.936Z,28.67
2023-04-15T07:38:06.944Z,31.72
2023-04-15T07:39:06.978Z,29.44
2023-04-15T07:40:07.029Z,31.49
2023-04-15T07:41:07.037Z,30.71
2023-04-15T07:42:07.073Z,31.44
2023-04-15T07:43:07.065Z,30.55
2023-04-15T07:44:07.124Z,30.14
2023-04-15T07:45:07.133Z,25.00
2023-04-15T07:46:07.239Z,31.46
2023-04-15T07:47:07.187Z,31.66
2023-04-15T07:48:07.193Z,32.58
2023-04-15T07:49:07.247Z,30.79
2023-04-15T07:50:07.288Z,31.43
2023-04-15T07:51:07.297Z,30.84
2023-04-15T07:52:07.328Z,31.46
2023-04-15T07:53:07.364Z,31.20
2023-04-15T07:54:07.395Z,31.29
2023-04-15T07:55:07.418Z,31.16
2023-04-15T07:56:07.428Z,28.44
2023-04-15T07:57:07.484Z,25.09
2023-04-15T07:58:07.482Z,29.09
2023-04-15T07:59:07.534Z,30.10
2023-04-15T08:00:07.617Z,28.86
2023-04-15T08:01:07.552Z,31.82
2023-04-15T08:02:07.597Z,29.29
2023-04-15T08:03:07.762Z,27.58
2023-04-15T08:04:07.790Z,33.80
2023-04-15T08:05:07.757Z,29.08
2023-04-15T08:06:07.696Z,31.92
2023-04-15T08:07:07.736Z,30.24
2023-04-15T08:08:07.745Z,30.83
2023-04-15T08:09:07.762Z,32.45
2023-04-15T08:10:07.811Z,35.15
2023-04-15T08:11:07.795Z,31.13
2023-04-15T08:12:07.844Z,31.14
2023-04-15T08:13:07.838Z,26.58
2023-04-15T08:14:07.888Z,32.21
2023-04-15T08:15:07.927Z,31.52
2023-04-15T08:16:07.991Z,28.00
2023-04-15T08:17:07.975Z,33.74
2023-04-15T08:18:07.992Z,33.37
2023-04-15T08:19:08.039Z,31.65
2023-04-15T08:20:08.051Z,28.89
2023-04-15T08:21:08.076Z,30.26
2023-04-15T08:22:10.343Z,28.26
2023-04-15T08:23:08.079Z,31.41
2023-04-15T08:24:08.118Z,32.84
2023-04-15T08:25:08.052Z,31.41
2023-04-15T08:26:08.062Z,31.28
2023-04-15T08:27:08.091Z,28.47
2023-04-15T08:28:08.052Z,29.99
2023-04-15T08:29:08.037Z,32.12
2023-04-15T08:30:08.051Z,27.75
2023-04-15T08:31:08.121Z,31.98
2023-04-15T08:32:08.038Z,30.66
2023-04-15T08:33:08.042Z,30.40
2023-04-15T08:34:08.009Z,30.04
2023-04-15T08:35:08.028Z,27.93
2023-04-15T08:36:08.022Z,27.41
2023-04-15T08:37:08.028Z,28.25
2023-04-15T08:38:07.997Z,30.30
2023-04-15T08:39:07.995Z,27.84
2023-04-15T08:40:07.987Z,25.00
2023-04-15T08:41:08.047Z,31.27
2023-04-15T08:42:07.964Z,29.91
2023-04-15T08:43:07.950Z,28.42
2023-04-15T08:44:07.955Z,31.07
2023-04-15T08:45:07.936Z,30.03
2023-04-15T08:46:07.936Z,31.22
2023-04-15T08:47:09.565Z,31.56
2023-04-15T08:48:07.919Z,31.41
2023-04-15T08:49:07.896Z,30.11
2023-04-15T08:50:07.940Z,30.20
2023-04-15T08:51:07.920Z,28.69
2023-04-15T08:52:07.907Z,35.10
2023-04-15T08:53:07.911Z,30.19
2023-04-15T08:54:07.883Z,29.13
2023-04-15T08:55:07.872Z,30.96
2023-04-15T08:56:07.864Z,28.85
2023-04-15T08:57:07.863Z,29.68
2023-04-15T08:58:07.867Z,33.68
2023-04-15T08:59:07.855Z,29.20
2023-04-15T09:00:07.958Z,30.74
2023-04-15T09:01:07.855Z,30.58
2023-04-15T09:02:07.903Z,28.39
2023-04-15T09:03:07.902Z,31.28
2023-04-15T09:04:07.990Z,27.01
2023-04-15T09:05:07.854Z,29.54
2023-04-15T09:06:07.796Z,27.52
2023-04-15T09:07:07.808Z,27.86
2023-04-15T09:08:08.512Z,28.23
2023-04-15T09:09:07.801Z,29.28
2023-04-15T09:10:07.803Z,25.09
2023-04-15T09:11:07.809Z,30.31
2023-04-15T09:12:07.762Z,27.32
2023-04-15T09:13:07.778Z,27.87
2023-04-15T09:14:07.820Z,31.41
2023-04-15T09:15:07.817Z,25.87
2023-04-15T09:16:07.896Z,30.26
2023-04-15T09:17:07.894Z,30.01
2023-04-15T09:18:07.913Z,29.14
2023-04-15T09:19:07.920Z,31.11
2023-04-15T09:20:07.973Z,29.43
2023-04-15T09:21:07.971Z,29.52
2023-04-15T09:22:07.963Z,32.31
2023-04-15T09:23:08.027Z,30.20
2023-04-15T09:24:08.027Z,26.66
2023-04-15T09:25:08.027Z,29.13
2023-04-15T09:26:08.040Z,30.28
2023-04-15T09:27:08.078Z,29.43
2023-04-15T09:28:08.091Z,30.36
2023-04-15T09:29:08.093Z,27.41
2023-04-15T09:30:08.204Z,30.67
2023-04-15T09:31:08.168Z,31.34
2023-04-15T09:32:08.144Z,30.77
2023-04-15T09:33:08.345Z,32.20
2023-04-15T09:34:08.193Z,26.23
2023-04-15T09:35:08.197Z,31.72
2023-04-15T09:36:08.207Z,31.79
2023-04-15T09:37:08.231Z,30.16
2023-04-15T09:38:08.240Z,31.76
2023-04-15T09:39:08.227Z,31.02
2023-04-15T09:40:08.295Z,32.21
2023-04-15T09:41:08.273Z,31.58
2023-04-15T09:42:08.405Z,27.27
2023-04-15T09:43:08.314Z,29.98
2023-04-15T09:44:08.318Z,32.57
2023-04-15T09:45:08.361Z,28.59
2023-04-15T09:46:08.440Z,29.85
2023-04-15T09:47:08.356Z,29.38
2023-04-15T09:48:09.802Z,31.07
2023-04-15T09:49:08.438Z,30.34
2023-04-15T09:50:08.471Z,28.09
2023-04-15T09:51:08.468Z,32.99
2023-04-15T09:52:08.466Z,30.08
2023-04-15T09:53:08.504Z,31.67
2023-04-15T09:54:08.532Z,31.22
2023-04-15T09:55:08.563Z,30.08
2023-04-15T09:56:08.565Z,31.92
2023-04-15T09:57:08.608Z,28.10
2023-04-15T09:58:08.605Z,31.82
2023-04-15T09:59:08.667Z,30.94
2023-04-15T10:00:08.673Z,28.95
2023-04-15T10:01:08.791Z,27.94
2023-04-15T10:02:08.778Z,31.16
2023-04-15T10:03:08.843Z,29.43
2023-04-15T10:04:08.826Z,32.69
2023-04-15T10:05:08.762Z,31.22
2023-04-15T10:06:08.773Z,32.13
2023-04-15T10:07:08.803Z,31.89
2023-04-15T10:08:08.800Z,29.17
2023-04-15T10:09:08.834Z,32.77
2023-04-15T10:10:08.847Z,33.07
2023-04-15T10:11:08.887Z,29.17
2023-04-15T10:12:08.896Z,32.17
2023-04-15T10:13:08.924Z,30.37
2023-04-15T10:14:08.920Z,32.81
2023-04-15T10:15:08.982Z,27.53
2023-04-15T10:16:09.018Z,28.60
2023-04-15T10:17:08.992Z,29.23
2023-04-15T10:18:09.010Z,30.22
2023-04-15T10:19:09.054Z,29.95
2023-04-15T10:20:09.043Z,31.99
2023-04-15T10:21:09.070Z,30.57
2023-04-15T10:22:09.090Z,31.76
2023-04-15T10:23:10.383Z,31.74
2023-04-15T10:24:09.147Z,28.98
2023-04-15T10:25:09.196Z,32.50
2023-04-15T10:26:09.156Z,32.44
2023-04-15T10:27:09.176Z,32.61
2023-04-15T10:28:09.232Z,28.94
2023-04-15T10:29:09.228Z,32.29
2023-04-15T10:30:09.282Z,28.22
2023-04-15T10:31:09.283Z,25.92
2023-04-15T10:32:09.306Z,31.03
2023-04-15T10:33:09.279Z,31.18
2023-04-15T10:34:09.293Z,27.99
2023-04-15T10:35:09.338Z,32.03
2023-04-15T10:36:09.359Z,27.50
2023-04-15T10:37:09.375Z,30.38
2023-04-15T10:38:09.375Z,32.21
2023-04-15T10:39:09.397Z,30.63
2023-04-15T10:40:09.482Z,30.82
2023-04-15T10:41:09.404Z,33.79
2023-04-15T10:42:09.445Z,30.07
2023-04-15T10:43:09.472Z,30.72
2023-04-15T10:44:09.463Z,34.22
2023-04-15T10:45:09.505Z,32.38
2023-04-15T10:46:09.515Z,33.15
2023-04-15T10:47:09.538Z,30.45
2023-04-15T10:48:09.581Z,30.75
2023-04-15T10:49:09.538Z,28.21
2023-04-15T10:50:09.584Z,29.52
2023-04-15T10:51:09.598Z,32.12
2023-04-15T10:52:09.600Z,33.83
2023-04-15T10:53:09.623Z,31.45
2023-04-15T10:54:09.624Z,35.39
2023-04-15T10:55:09.649Z,30.40
2023-04-15T10:56:09.662Z,34.53
2023-04-15T10:57:09.675Z,34.31
2023-04-15T10:58:09.653Z,34.95
2023-04-15T10:59:09.674Z,31.32
2023-04-15T11:00:09.675Z,35.99
2023-04-15T11:01:09.691Z,33.78
2023-04-15T11:02:09.752Z,33.39
2023-04-15T11:03:09.925Z,35.98
2023-04-15T11:04:09.896Z,32.74
2023-04-15T11:05:09.785Z,34.28
2023-04-15T11:06:09.790Z,30.78
2023-04-15T11:07:09.821Z,34.18
2023-04-15T11:08:09.820Z,28.84
2023-04-15T11:09:09.835Z,33.09
2023-04-15T11:10:09.831Z,32.34
2023-04-15T11:11:09.838Z,32.29
2023-04-15T11:12:09.984Z,33.54
2023-04-15T11:13:09.899Z,35.46
2023-04-15T11:14:09.895Z,30.53
2023-04-15T11:15:09.908Z,31.72
2023-04-15T11:16:09.925Z,29.17
2023-04-15T11:17:09.897Z,34.05
2023-04-15T11:18:09.945Z,34.83
2023-04-15T11:19:09.928Z,30.62
2023-04-15T11:20:09.926Z,32.39
2023-04-15T11:21:09.922Z,36.04
2023-04-15T11:22:09.935Z,31.41
2023-04-15T11:23:15.295Z,34.63
2023-04-15T11:24:10.947Z,34.71
2023-04-15T11:25:09.965Z,35.23
2023-04-15T11:26:09.997Z,33.09
2023-04-15T11:27:09.927Z,34.28
2023-04-15T11:28:09.905Z,36.55
2023-04-15T11:29:09.915Z,35.30
2023-04-15T11:30:09.889Z,36.66
2023-04-15T11:31:09.907Z,31.73
2023-04-15T11:32:09.929Z,36.02
2023-04-15T11:33:09.907Z,36.40
2023-04-15T11:34:09.898Z,34.04
2023-04-15T11:35:09.869Z,33.36
2023-04-15T11:36:09.876Z,34.88
2023-04-15T11:37:09.841Z,35.25
2023-04-15T11:38:09.863Z,35.13
2023-04-15T11:39:09.850Z,32.50
2023-04-15T11:40:09.848Z,35.05
2023-04-15T11:41:09.857Z,34.13
2023-04-15T11:42:09.842Z,34.91
2023-04-15T11:43:09.842Z,36.05
2023-04-15T11:44:09.796Z,36.18
2023-04-15T11:45:09.816Z,34.21
2023-04-15T11:46:09.826Z,34.32
2023-04-15T11:47:09.773Z,36.22
2023-04-15T11:48:09.781Z,34.71
2023-04-15T11:49:09.799Z,34.71
2023-04-15T11:50:09.765Z,34.19
2023-04-15T11:51:09.770Z,31.78
2023-04-15T11:52:09.763Z,32.74
2023-04-15T11:53:09.745Z,35.66
2023-04-15T11:54:09.739Z,33.66
2023-04-15T11:55:09.740Z,31.67
2023-04-15T11:56:09.743Z,32.97
2023-04-15T11:57:09.699Z,33.76
2023-04-15T11:58:09.767Z,35.48
2023-04-15T11:59:09.717Z,34.45
2023-04-15T12:00:09.827Z,32.84
2023-04-15T12:01:09.768Z,35.03
2023-04-15T12:02:09.878Z,36.55
2023-04-15T12:03:09.941Z,35.17
2023-04-15T12:04:10.165Z,33.90
2023-04-15T12:05:09.813Z,33.76
2023-04-15T12:06:09.806Z,34.54
2023-04-15T12:07:09.805Z,33.01
2023-04-15T12:08:09.845Z,34.44
2023-04-15T12:09:09.831Z,32.15
2023-04-15T12:10:09.890Z,34.91
2023-04-15T12:11:09.849Z,35.10
2023-04-15T12:12:09.851Z,34.72
2023-04-15T12:13:09.941Z,36.19
2023-04-15T12:14:09.847Z,36.54
2023-04-15T12:15:09.856Z,34.17
2023-04-15T12:16:09.875Z,35.84
2023-04-15T12:17:09.850Z,39.57
2023-04-15T12:18:09.900Z,36.47
2023-04-15T12:19:09.884Z,37.68
2023-04-15T12:20:09.913Z,35.69
2023-04-15T12:21:09.891Z,35.43
2023-04-15T12:22:09.884Z,38.85
2023-04-15T12:23:09.912Z,35.99
2023-04-15T12:24:09.912Z,32.27
2023-04-15T12:25:09.917Z,33.94
2023-04-15T12:26:09.924Z,37.29
2023-04-15T12:27:10.004Z,36.34
2023-04-15T12:28:09.911Z,36.44
2023-04-15T12:29:09.945Z,35.84
2023-04-15T12:30:09.956Z,35.33
2023-04-15T12:31:09.997Z,38.16
2023-04-15T12:32:09.940Z,31.96
2023-04-15T12:33:09.946Z,36.81
2023-04-15T12:34:09.958Z,36.63
2023-04-15T12:35:09.928Z,37.10
2023-04-15T12:36:09.943Z,35.19
2023-04-15T12:37:09.966Z,40.34
2023-04-15T12:38:09.978Z,36.04
2023-04-15T12:39:09.961Z,38.81
2023-04-15T12:40:09.964Z,37.03
2023-04-15T12:41:09.998Z,33.40
2023-04-15T12:42:09.962Z,32.76
2023-04-15T12:43:10.006Z,34.26
2023-04-15T12:44:09.988Z,39.08
2023-04-15T12:45:10.003Z,35.85
2023-04-15T12:46:10.045Z,34.28
2023-04-15T12:47:10.054Z,36.71
2023-04-15T12:48:10.051Z,38.98
2023-04-15T12:49:10.059Z,35.66
2023-04-15T12:50:10.060Z,40.09
2023-04-15T12:51:11.050Z,37.52
2023-04-15T12:52:10.084Z,34.08
2023-04-15T12:53:10.089Z,40.18
2023-04-15T12:54:10.118Z,39.80